• Join FlightAware (Why Join?)
  • Login
  • US Flag 
01:19AM EDT


 

Airport Tracker/Info


-or-


 

Live Flight TrackerFlight Track Log ✈ UAL395 ✈ 15-Jun-2013 ✈ KIAD - KORD

Flight Track Log - Related Links

Times and Time Zones

All times are in EDT time to prevent confusion due to time zone crossing. See the UAL395 flight status page for this flight to view local times or setup timezone preferences in your user account.

Time Position Orientation Groundspeed Altitude Reporting Facility
EDT Latitude Longitude Course Direction KTS MPH feet Rate Location/Type
10:18PM 38.9333 -77.6167 270° West 238 274 3,900  Level Potomac TRACON
10:19PM 38.8775 -77.8407 260° West  Level FlightAware Approximate
10:19PM 38.9033 -77.6936 243° Southwest 265 305 6,900  Level Washington Center
10:20PM 38.8845 -77.9715 288° West  Level FlightAware Approximate
10:20PM 38.8894 -77.7758 258° West 273 314 9,500  Level Washington Center
10:21PM 38.9171 -78.1016 288° West  Level FlightAware Approximate
10:21PM 38.8792 -77.8822 263° West 290 334 12,700  Level Washington Center
10:22PM 38.9500 -78.2289 270° West  Level FlightAware Approximate
10:22PM 38.8878 -77.9786 277° West 317 365 15,300  Level Washington Center
10:23PM 38.9500 -78.3657 270° West  Level FlightAware Approximate
10:23PM 38.9208 -78.0864 292° West 317 365 16,300  Level Washington Center
10:24PM 38.9578 -78.2103 291° West 340 391 17,600 1,680 Climbing Washington Center
10:25PM 38.9653 -78.3442 274° West 361 415 19,700 2,100 Climbing Washington Center
10:26PM 38.9683 -78.4778 272° West 377 434 21,900 1,800 Climbing Washington Center
10:27PM 38.9736 -78.6114 273° West 377 434 23,300 1,320 Climbing Washington Center
10:28PM 38.9761 -78.7506 271° West 387 445 24,600 1,320 Climbing Washington Center
10:29PM 38.9808 -78.8894 273° West 387 445 26,000 1,140 Climbing Washington Center
10:30PM 38.9853 -79.0286 272° West 387 445 26,900 840 Climbing Washington Center
10:31PM 38.9892 -79.1756 272° West 399 459 27,800 780 Climbing Washington Center
10:32PM 38.9928 -79.3308 272° West 421 484 28,500 840 Climbing Washington Center
10:33PM 38.9964 -79.4858 272° West 432 497 29,500 1,140 Climbing Washington Center
10:34PM 38.9994 -79.6436 271° West 438 504 30,800 1,140 Climbing Washington Center
10:35PM 39.0025 -79.7933 272° West 438 504 31,800 960 Climbing Washington Center
10:36PM 39.0019 -79.9644 270° West 426 490 32,900 960 Climbing Indianapolis Center
10:37PM 39.0050 -80.1239 271° West 424 488 34,000 540 Climbing Indianapolis Center
10:38PM 39.0064 -80.2742 271° West 421 484 34,000  Level Indianapolis Center
10:39PM 39.0314 -80.4183 283° West 419 482 34,000  Level Indianapolis Center
10:40PM 39.0869 -80.5478 299° West 416 479 34,000  Level Indianapolis Center
10:41PM 39.1453 -80.6756 301° West 416 479 34,000  Level Indianapolis Center
10:42PM 39.1989 -80.8017 299° West 407 468 34,000  Level Indianapolis Center
10:43PM 39.2547 -80.9325 299° West 417 480 34,000  Level Indianapolis Center
10:44PM 39.3233 -81.0878 300° West 419 482 34,000  Level Indianapolis Center
10:45PM 39.3781 -81.2164 299° West 414 476 34,000  Level Indianapolis Center
10:46PM 39.4331 -81.3464 299° West 413 475 34,000  Level Indianapolis Center
10:47PM 39.4878 -81.4736 299° West 409 471 34,000  Level Indianapolis Center
10:48PM 39.5436 -81.6022 299° West 410 472 34,000  Level Indianapolis Center
10:49PM 39.5986 -81.7325 299° West 412 474 34,000  Level Indianapolis Center
10:50PM 39.6531 -81.8636 298° West 412 474 34,000  Level Indianapolis Center
10:51PM 39.7114 -82.0019 299° West 412 474 34,000 -60 Level Indianapolis Center
10:52PM 39.7658 -82.1322 299° West 408 470 33,900 -60 Descending Indianapolis Center
10:53PM 39.8208 -82.2636 299° West 410 472 33,900  Level Indianapolis Center
10:54PM 39.8750 -82.3942 298° West 408 470 34,000  Climbing Indianapolis Center
10:55PM 39.9294 -82.5256 298° West 409 471 34,000  Level Indianapolis Center
10:56PM 39.9842 -82.6575 298° West 410 472 34,000  Level Indianapolis Center
10:57PM 40.0375 -82.7897 298° West 409 471 34,000  Level Indianapolis Center
10:58PM 40.0917 -82.9219 298° West 410 472 34,000  Level Indianapolis Center
10:59PM 40.1453 -83.0547 298° West 413 475 34,000  Level Indianapolis Center
11:00PM 40.1989 -83.1858 298° West 408 470 34,000  Level Indianapolis Center
11:01PM 40.2525 -83.3192 298° West 412 474 34,000  Level Indianapolis Center
11:02PM 40.3053 -83.4508 298° West 409 471 34,000  Level Indianapolis Center
11:03PM 40.3583 -83.5831 298° West 409 471 34,000 -60 Level Indianapolis Center
11:04PM 40.4100 -83.7150 297° West 406 467 33,900 -60 Descending Indianapolis Center
11:05PM 40.4622 -83.8461 298° West 404 465 33,900  Level Indianapolis Center
11:06PM 40.5144 -83.9772 298° West 403 464 33,900  Level Indianapolis Center
11:07PM 40.5653 -84.1100 297° West 405 466 34,000  Climbing Indianapolis Center
11:08PM 40.6167 -84.2417 297° West 403 464 33,900 -60 Descending Indianapolis Center
11:09PM 40.6683 -84.3728 297° West 402 463 33,900  Level Indianapolis Center
11:10PM 40.7186 -84.5061 296° West 403 464 33,900  Level Indianapolis Center
11:11PM 40.7706 -84.6378 298° West 401 461 34,000  Climbing Indianapolis Center
11:12PM 40.8156 -84.7731 294° West 400 460 33,900  Descending Indianapolis Center
11:13PM 40.8575 -84.9097 292° West 399 459 34,000 -120 Climbing Indianapolis Center
11:14PM 40.8678 -84.9414 293° West 399 459 33,800 -2,580 Descending Chicago Center
11:15PM 40.9094 -85.0789 292° West 401 461 30,500 -3,060 Descending Chicago Center
11:16PM 40.9614 -85.2508 292° West 415 478 27,700 -2,880 Descending Chicago Center
11:17PM 41.0019 -85.3889 291° West 407 468 24,800 -1,860 Descending Chicago Center
11:18PM 41.0425 -85.5247 292° West 397 457 24,000 -420 Descending Chicago Center
11:19PM 41.0831 -85.6617 291° West 398 458 24,000  Level Chicago Center
11:20PM 41.1242 -85.7978 292° West 397 457 24,000  Level Chicago Center
11:21PM 41.1636 -85.9344 291° West 394 453 24,000 -300 Level Chicago Center
11:22PM 41.2036 -86.0703 291° West 396 456 23,400 -1,500 Descending Chicago Center
11:23PM 41.2414 -86.2036 291° West 386 444 21,000 -2,340 Descending Chicago Center
11:24PM 41.2794 -86.3328 291° West 376 433 18,800 -2,400 Descending Chicago Center
11:25PM 41.3161 -86.4594 291° West 368 423 16,200 -1,860 Descending Chicago Center
11:26PM 41.3519 -86.5806 292° West 356 410 15,100 -1,380 Descending Chicago Center
11:27PM 41.3825 -86.6894 291° West 318 366 13,500 -1,740 Descending Chicago Center
11:28PM 41.4147 -86.8036 291° West 310 357 11,700 -1,260 Descending Chicago Center
11:29PM 41.4447 -86.9092 291° West 309 356 11,000 -360 Descending Chicago Center
11:30PM 41.4756 -87.0206 290° West 321 369 11,000  Level Chicago Center
11:31PM 41.5089 -87.1369 291° West 336 387 11,000  Level Chicago Center
11:32PM 41.5819 -87.2133 322° Northwest 341 392 11,000  Level Chicago Center
11:33PM 41.6644 -87.2733 331° Northwest 340 391 11,000  Level Chicago Center
11:34PM 41.7439 -87.3278 333° Northwest 328 377 11,000  Level Chicago Center
11:35PM 41.8286 -87.3617 343° North 323 372 11,000  Level Chicago Center
11:36PM 41.9139 -87.3981 342° North 323 372 11,000  Level Chicago Center
11:37PM 42.0031 -87.4347 343° North 334 384 11,000  Level Chicago Center
11:38PM 42.0767 -87.5042 325° Northwest 338 389 11,000 -120 Level Chicago Center
11:39PM 42.1225 -87.6069 301° West 327 376 10,800 -1,020 Descending Chicago Center
11:40PM 42.1711 -87.7122 302° West 290 334 9,000 -1,620 Descending Chicago Center
11:41PM 42.1972 -87.7942 293° West 252 290 7,600 -1,320 Descending Chicago Center
11:42PM 42.2175 -87.8672 291° West 218 251 6,400 -1,200 Descending Chicago Center
11:43PM 42.1978 -87.9303 247° West 180 207 5,300 -1,140 Descending Chicago Center
11:44PM 42.1811 -87.9831 247° West 164 189 4,200 -660 Descending Chicago Center
11:45PM 42.1767 -88.0339 263° West 156 180 4,000 -120 Descending Chicago Center
11:46PM 42.1961 -88.0803 300° West 148 170 4,000  Level Chicago Center
11:47PM 42.1711 -88.1217 231° Southwest 161 185 4,000 -420 Level Chicago Center
11:48PM 42.1264 -88.0869 150° Southeast 179 206 3,200 -900 Descending Chicago Center
11:49PM 42.1000 -88.0500 134° Southeast 185 213 2,600 -1,080 Descending Chicago TRACON